НИСЛЭГИЙН ЦАГ УУРЫН ТӨВ

2017.12.14        EN 

Идэвхитэй хуудас: Нүүр хуудас arrow TAF&METAR arrow Latest arrow METAR 112300




Их уншигдсан
Сүүлд нэмэгдсэн
METAR 112300 Хэвлэ Имэйл
Бичсэн: Administrator   
Thursday, 11 November 2010
SAMO31 ZMUH 112251
METAR ZMUH 112300Z 00000MPS CAVOK M16/M20 Q1008 NOSIG RMK QFE665.6 75=
SAMO31 ZMUB 112253
METAR ZMUB 112300Z 32004MPS 290V350 9999 FEW033 M12/M14 Q1008 NOSIG RMK QFE650.3 83=
SAMO31 ZMAH 112253
METAR ZMAH 112300Z //// SCT080 M13/M20 Q1009 NOSIG RMK QFE607.9 58=3D=
SAMO31 ZMKD 112252
METAR ZMKD 112300Z VRB01MPS //// SCT040 SCT100 M08/M10 Q1026 NOSIG RMK QFE641.0 81=3D=
SAMO31 ZMUL 112255
METAR ZMUL 112300Z VRB01MPS CAVOK M10/M22 Q1018 NOSIG RMK QFE619.0 40%=
SAMO31 ZMMN 112254
METAR ZMMN 112300Z 29003MPS //// BKN100 M11/M21 Q1018 NOSIG RMK QFE653.8 45=
SAMO31 ZMDZ 112254
METAR ZMDZ 112300Z 32008MPS //// SCT035 M09/M10 Q1011 NOSIG RMK QFE636.0 85=
SAMO31 ZMBU 112255
METAR ZMBU 112300Z 00000MPS 9999 SCT100 M12/M15 Q1004 NOSIG RMK QFE670.2 77=
SAMO31 ZMUB 112254
METAR ZMGT 112300Z 34012MPS 9999 SN BLSN SCT040 M05/M11 Q1011 NOSIG RMK QFE627.2 59=
SAMO31 ZMMG 112256
METAR ZMMG 112300Z 33004MPS CAVOK M12/M16 Q1008 NOSIG RMK QFE639.0 71=
SAMO31 ZMBH 112257
METAR ZMBH 112300Z 14002MPS CAVOK M15/M22 Q1010 NOSIG RMK QFE604.8 55=
SAMO31 ZMAT 112257
METAR ZMAT 112300Z 00000MPS //// SCT030 SCT100 M14/M18 Q1013 NOSIG RMK QFE583.4 67=
SAMO31 ZMUB 112256
METAR ZMOT 112300Z 31004MPS 9999 BKN080 M05/M07 Q1009 NOSIG RMK QFE655.0 83=
SAMO31 ZMUG 112259
METAR ZMUG 112300Z 29002MPS //// SCT100 M09/M12 Q1024 NOSIG RMK QFE685.4 83=
SAMO31 ZMCD 112303 RRA
METAR ZMCD 112300Z VRB01MPS 9999 BKN100 M14/M16 Q1008 NOSIG RMK ST QFE692.0 84=
Шинэчилсэн: ( Thursday, 11 November 2010 )
 
< Өмнөх   Дараах >
Онлайнд
Гишүүд: 258
Мэдээ: 325
Вэб холбоосууд: 10
Зочлогчид: 795439